createdAt,value
2018-09-24T00:00:45.057Z,1017.48
2018-09-24T00:02:37.973Z,1017.51
2018-09-24T00:03:37.880Z,1017.53
2018-09-24T00:05:31.154Z,1017.53
2018-09-24T00:06:31.117Z,1017.57
2018-09-24T00:08:24.426Z,1017.56
2018-09-24T00:09:24.375Z,1017.58
2018-09-24T00:11:17.699Z,1017.59
2018-09-24T00:12:17.659Z,1017.60
2018-09-24T00:14:10.993Z,1017.64
2018-09-24T00:15:11.038Z,1017.61
2018-09-24T00:17:05.298Z,1017.68
2018-09-24T00:18:05.205Z,1017.67
2018-09-24T00:19:58.516Z,1017.74
2018-09-24T00:20:58.479Z,1017.73
2018-09-24T00:22:52.835Z,1017.70
2018-09-24T00:23:52.738Z,1017.69
2018-09-24T00:25:46.125Z,1017.72
2018-09-24T00:26:46.029Z,1017.76
2018-09-24T00:28:39.322Z,1017.82
2018-09-24T00:29:39.257Z,1017.82
2018-09-24T00:31:32.558Z,1017.92
2018-09-24T00:32:32.517Z,1017.94
2018-09-24T00:34:25.838Z,1017.96
2018-09-24T00:35:25.800Z,1018.02
2018-09-24T00:37:20.149Z,1018.00
2018-09-24T00:38:20.058Z,1018.06
2018-09-24T00:40:13.378Z,1018.04
2018-09-24T00:41:13.334Z,1018.09
2018-09-24T00:43:06.648Z,1018.17
2018-09-24T00:44:06.579Z,1018.23
2018-09-24T00:45:59.880Z,1018.26
2018-09-24T00:46:59.869Z,1018.27
2018-09-24T00:48:53.174Z,1018.27
2018-09-24T00:49:53.151Z,1018.32
2018-09-24T00:51:46.424Z,1018.31
2018-09-24T00:52:46.429Z,1018.32
2018-09-24T00:54:39.699Z,1018.33
2018-09-24T00:55:39.684Z,1018.31
2018-09-24T00:57:34.160Z,1018.34
2018-09-24T00:58:34.109Z,1018.35
2018-09-24T01:00:27.434Z,1018.37
2018-09-24T01:01:27.405Z,1018.37
2018-09-24T01:03:20.696Z,1018.45
2018-09-24T01:04:21.294Z,1018.44
2018-09-24T01:06:13.945Z,1018.51
2018-09-24T01:07:13.899Z,1018.54
2018-09-24T01:09:07.214Z,1018.60
2018-09-24T01:10:07.164Z,1018.64
2018-09-24T01:12:00.494Z,1018.65
2018-09-24T01:13:00.431Z,1018.66
2018-09-24T01:14:53.751Z,1018.65
2018-09-24T01:15:53.716Z,1018.67
2018-09-24T01:17:46.997Z,1018.67
2018-09-24T01:18:46.977Z,1018.69
2018-09-24T01:20:41.269Z,1018.73
2018-09-24T01:21:41.214Z,1018.76
2018-09-24T01:23:35.531Z,1018.78
2018-09-24T01:24:35.486Z,1018.80
2018-09-24T01:26:28.807Z,1018.86
2018-09-24T01:27:28.761Z,1018.92
2018-09-24T01:29:23.100Z,1018.92
2018-09-24T01:30:23.086Z,1018.97
2018-09-24T01:32:16.420Z,1019.03
2018-09-24T01:33:16.346Z,1019.04
2018-09-24T01:35:10.646Z,1019.06
2018-09-24T01:36:10.592Z,1019.09
2018-09-24T01:38:03.907Z,1019.09
2018-09-24T01:39:03.872Z,1019.14
2018-09-24T01:40:57.181Z,1019.16
2018-09-24T01:41:57.132Z,1019.15
2018-09-24T01:43:50.433Z,1019.22
2018-09-24T01:44:50.393Z,1019.24
2018-09-24T01:46:44.248Z,1019.27
2018-09-24T01:47:44.210Z,1019.24
2018-09-24T01:49:37.486Z,1019.28
2018-09-24T01:50:37.462Z,1019.32
2018-09-24T01:52:30.758Z,1019.31
2018-09-24T01:53:30.762Z,1019.30
2018-09-24T01:55:24.021Z,1019.33
2018-09-24T01:56:23.979Z,1019.34
2018-09-24T01:58:18.306Z,1019.33
2018-09-24T01:59:18.235Z,1019.34
2018-09-24T02:01:11.551Z,1019.35
2018-09-24T02:02:11.496Z,1019.39
2018-09-24T02:04:05.803Z,1019.41
2018-09-24T02:05:05.772Z,1019.41
2018-09-24T02:06:59.083Z,1019.37
2018-09-24T02:07:59.052Z,1019.38
2018-09-24T02:09:52.321Z,1019.45
2018-09-24T02:10:52.278Z,1019.46
2018-09-24T02:12:45.603Z,1019.48
2018-09-24T02:13:45.572Z,1019.49
2018-09-24T02:15:38.865Z,1019.49
2018-09-24T02:16:38.812Z,1019.43
2018-09-24T02:18:32.148Z,1019.50
2018-09-24T02:19:32.147Z,1019.49
2018-09-24T02:21:25.373Z,1019.46
2018-09-24T02:22:25.342Z,1019.52
2018-09-24T02:24:18.678Z,1019.52
2018-09-24T02:25:18.607Z,1019.52
2018-09-24T02:27:14.029Z,1019.56
2018-09-24T02:28:13.909Z,1019.58
2018-09-24T02:30:07.208Z,1019.59
2018-09-24T02:31:07.820Z,1019.60
2018-09-24T02:33:01.521Z,1019.64
2018-09-24T02:34:01.435Z,1019.64
2018-09-24T02:35:54.730Z,1019.68
2018-09-24T02:36:54.702Z,1019.71
2018-09-24T02:38:48.999Z,1019.75
2018-09-24T02:39:48.943Z,1019.76
2018-09-24T02:41:43.263Z,1019.82
2018-09-24T02:42:43.229Z,1019.80
2018-09-24T02:44:36.514Z,1019.82
2018-09-24T02:45:36.515Z,1019.87
2018-09-24T02:47:30.804Z,1019.92
2018-09-24T02:48:30.745Z,1019.93
2018-09-24T02:50:24.040Z,1019.95
2018-09-24T02:51:24.007Z,1019.95
2018-09-24T02:53:19.368Z,1019.97
2018-09-24T02:54:19.270Z,1020.00
2018-09-24T02:56:14.634Z,1020.04
2018-09-24T02:57:14.594Z,1020.02
2018-09-24T02:59:08.865Z,1020.03
2018-09-24T03:00:08.825Z,1020.01
2018-09-24T03:02:02.269Z,1019.99
2018-09-24T03:03:02.075Z,1020.03
2018-09-24T03:04:54.946Z,1020.07
2018-09-24T03:05:54.933Z,1020.05
2018-09-24T03:07:48.229Z,1020.09
2018-09-24T03:08:48.145Z,1020.11
2018-09-24T03:10:41.440Z,1020.20
2018-09-24T03:11:41.417Z,1020.17
2018-09-24T03:13:34.720Z,1020.23
2018-09-24T03:14:34.680Z,1020.24
2018-09-24T03:16:27.986Z,1020.30
2018-09-24T03:17:27.941Z,1020.29
2018-09-24T03:19:21.390Z,1020.31
2018-09-24T03:20:21.233Z,1020.29
2018-09-24T03:22:14.531Z,1020.34
2018-09-24T03:23:14.471Z,1020.35
2018-09-24T03:25:07.875Z,1020.39
2018-09-24T03:26:07.814Z,1020.38
2018-09-24T03:28:01.072Z,1020.43
2018-09-24T03:29:01.042Z,1020.42
2018-09-24T03:30:54.286Z,1020.43
2018-09-24T03:31:54.262Z,1020.46
2018-09-24T03:33:47.586Z,1020.43
2018-09-24T03:34:47.513Z,1020.46
2018-09-24T03:36:41.830Z,1020.51
2018-09-24T03:37:41.781Z,1020.50
2018-09-24T03:39:35.839Z,1020.53
2018-09-24T03:40:35.036Z,1020.57
2018-09-24T03:42:29.341Z,1020.59
2018-09-24T03:43:29.291Z,1020.57
2018-09-24T03:45:22.617Z,1020.60
2018-09-24T03:46:22.592Z,1020.64
2018-09-24T03:48:15.880Z,1020.65
2018-09-24T03:49:15.844Z,1020.64
2018-09-24T03:51:09.456Z,1020.60
2018-09-24T03:52:09.437Z,1020.66
2018-09-24T03:54:02.696Z,1020.64
2018-09-24T03:55:02.636Z,1020.68
2018-09-24T03:56:56.580Z,1020.67
2018-09-24T03:57:55.906Z,1020.68
2018-09-24T03:59:50.415Z,1020.71
2018-09-24T04:00:50.197Z,1020.72
2018-09-24T04:02:44.528Z,1020.76
2018-09-24T04:03:44.492Z,1020.85
2018-09-24T04:05:38.781Z,1020.86
2018-09-24T04:06:38.731Z,1020.84
2018-09-24T04:08:32.667Z,1020.88
2018-09-24T04:09:32.013Z,1020.93
2018-09-24T04:11:25.339Z,1020.99
2018-09-24T04:12:25.313Z,1020.99
2018-09-24T04:14:19.590Z,1021.02
2018-09-24T04:15:19.544Z,1021.07
2018-09-24T04:17:12.826Z,1021.06
2018-09-24T04:18:12.803Z,1021.07
2018-09-24T04:20:06.119Z,1021.07
2018-09-24T04:21:06.077Z,1021.05
2018-09-24T04:22:59.385Z,1021.04
2018-09-24T04:23:59.363Z,1021.00
2018-09-24T04:25:53.697Z,1021.03
2018-09-24T04:26:53.599Z,1021.03
2018-09-24T04:28:47.892Z,1021.06
2018-09-24T04:29:47.849Z,1021.09
2018-09-24T04:31:41.218Z,1021.09
2018-09-24T04:32:41.166Z,1021.13
2018-09-24T04:34:34.621Z,1021.13
2018-09-24T04:35:33.959Z,1021.15
2018-09-24T04:37:28.249Z,1021.16
2018-09-24T04:38:28.225Z,1021.16
2018-09-24T04:40:21.065Z,1021.17
2018-09-24T04:41:20.993Z,1021.16
2018-09-24T04:43:14.288Z,1021.19
2018-09-24T04:44:14.264Z,1021.21
2018-09-24T04:46:07.608Z,1021.23
2018-09-24T04:47:07.519Z,1021.28
2018-09-24T04:49:00.373Z,1021.30
2018-09-24T04:50:00.322Z,1021.36
2018-09-24T04:51:54.620Z,1021.34
2018-09-24T04:52:54.549Z,1021.40
2018-09-24T04:54:47.870Z,1021.35
2018-09-24T04:55:47.810Z,1021.40
2018-09-24T04:57:41.134Z,1021.42
2018-09-24T04:58:41.146Z,1021.44
2018-09-24T05:00:34.385Z,1021.41
2018-09-24T05:01:34.355Z,1021.45
2018-09-24T05:03:28.639Z,1021.49
2018-09-24T05:04:28.593Z,1021.50
2018-09-24T05:06:21.898Z,1021.55
2018-09-24T05:07:21.859Z,1021.58
2018-09-24T05:09:15.145Z,1021.61
2018-09-24T05:10:15.142Z,1021.68
2018-09-24T05:12:08.404Z,1021.71
2018-09-24T05:13:08.364Z,1021.78
2018-09-24T05:15:01.693Z,1021.77
2018-09-24T05:16:01.666Z,1021.77
2018-09-24T05:17:54.944Z,1021.75
2018-09-24T05:18:54.904Z,1021.78
2018-09-24T05:20:48.199Z,1021.81
2018-09-24T05:21:48.151Z,1021.81
2018-09-24T05:23:41.458Z,1021.88
2018-09-24T05:24:41.415Z,1021.83
2018-09-24T05:26:34.725Z,1021.82
2018-09-24T05:27:34.675Z,1021.80
2018-09-24T05:29:27.983Z,1021.86
2018-09-24T05:30:27.929Z,1021.81
2018-09-24T05:32:21.316Z,1021.85
2018-09-24T05:33:21.236Z,1021.84
2018-09-24T05:35:14.508Z,1021.93
2018-09-24T05:36:14.465Z,1021.90
2018-09-24T05:38:08.841Z,1021.99
2018-09-24T05:39:08.761Z,1021.98
2018-09-24T05:41:02.014Z,1021.99
2018-09-24T05:42:02.003Z,1022.03
2018-09-24T05:43:55.308Z,1022.02
2018-09-24T05:44:55.262Z,1022.07
2018-09-24T05:46:49.565Z,1022.11
2018-09-24T05:47:49.578Z,1022.14
2018-09-24T05:49:42.807Z,1022.21
2018-09-24T05:50:42.767Z,1022.22
2018-09-24T05:52:36.077Z,1022.26
2018-09-24T05:53:36.021Z,1022.29
2018-09-24T05:55:29.326Z,1022.37
2018-09-24T05:56:29.288Z,1022.35
2018-09-24T05:58:22.588Z,1022.42
2018-09-24T05:59:22.540Z,1022.45
2018-09-24T06:01:15.857Z,1022.47
2018-09-24T06:02:15.822Z,1022.47
2018-09-24T06:04:09.128Z,1022.53
2018-09-24T06:05:09.081Z,1022.52
2018-09-24T06:07:02.410Z,1022.55
2018-09-24T06:08:02.383Z,1022.56
2018-09-24T06:09:55.660Z,1022.64
2018-09-24T06:10:55.628Z,1022.64
2018-09-24T06:12:48.928Z,1022.66
2018-09-24T06:13:48.868Z,1022.72
2018-09-24T06:15:43.183Z,1022.76
2018-09-24T06:16:43.124Z,1022.75
2018-09-24T06:18:36.441Z,1022.80
2018-09-24T06:19:36.392Z,1022.79
2018-09-24T06:21:29.687Z,1022.81
2018-09-24T06:22:29.651Z,1022.80
2018-09-24T06:24:24.018Z,1022.82
2018-09-24T06:25:23.957Z,1022.84
2018-09-24T06:27:17.218Z,1022.88
2018-09-24T06:28:17.203Z,1022.90
2018-09-24T06:30:10.514Z,1022.97
2018-09-24T06:31:10.441Z,1022.98
2018-09-24T06:33:03.759Z,1022.94
2018-09-24T06:34:03.697Z,1022.97
2018-09-24T06:35:57.037Z,1022.98
2018-09-24T06:36:57.048Z,1023.00
2018-09-24T06:38:50.289Z,1023.01
2018-09-24T06:39:50.234Z,1022.98
2018-09-24T06:41:43.524Z,1023.06
2018-09-24T06:42:43.489Z,1023.09
2018-09-24T06:44:36.831Z,1023.07
2018-09-24T06:45:36.754Z,1023.13
2018-09-24T06:47:30.089Z,1023.14
2018-09-24T06:48:30.028Z,1023.14
2018-09-24T06:50:23.334Z,1023.21
2018-09-24T06:51:23.283Z,1023.22
2018-09-24T06:53:16.600Z,1023.23
2018-09-24T06:54:16.542Z,1023.24
2018-09-24T06:56:09.851Z,1023.27
2018-09-24T06:57:09.812Z,1023.24
2018-09-24T06:59:06.156Z,1023.23
2018-09-24T07:00:06.100Z,1023.25
2018-09-24T07:02:01.504Z,1023.26
2018-09-24T07:03:01.445Z,1023.27
2018-09-24T07:04:55.846Z,1023.31
2018-09-24T07:05:57.333Z,1023.29
2018-09-24T07:07:49.158Z,1023.33
2018-09-24T07:08:49.126Z,1023.29
2018-09-24T07:10:43.451Z,1023.36
2018-09-24T07:11:43.374Z,1023.37
2018-09-24T07:13:37.744Z,1023.38
2018-09-24T07:14:37.683Z,1023.39
2018-09-24T07:16:30.965Z,1023.40
2018-09-24T07:17:30.926Z,1023.44
2018-09-24T07:19:24.261Z,1023.49
2018-09-24T07:20:24.209Z,1023.48
2018-09-24T07:22:17.527Z,1023.56
2018-09-24T07:23:18.095Z,1023.56
2018-09-24T07:25:10.765Z,1023.56
2018-09-24T07:26:10.712Z,1023.61
2018-09-24T07:28:04.076Z,1023.62
2018-09-24T07:29:03.966Z,1023.64
2018-09-24T07:30:58.285Z,1023.66
2018-09-24T07:31:58.225Z,1023.68
2018-09-24T07:33:51.540Z,1023.64
2018-09-24T07:34:51.506Z,1023.77
2018-09-24T07:36:44.871Z,1023.80
2018-09-24T07:37:44.777Z,1023.81
2018-09-24T07:39:38.091Z,1023.82
2018-09-24T07:40:38.040Z,1023.86
2018-09-24T07:42:31.367Z,1023.91
2018-09-24T07:43:31.389Z,1023.93
2018-09-24T07:45:26.677Z,1023.94
2018-09-24T07:46:26.580Z,1023.93
2018-09-24T07:48:19.480Z,1023.98
2018-09-24T07:49:19.379Z,1024.04
2018-09-24T07:51:13.758Z,1024.06
2018-09-24T07:52:13.692Z,1024.08
2018-09-24T07:54:06.963Z,1024.15
2018-09-24T07:55:06.926Z,1024.14
2018-09-24T07:57:00.258Z,1024.19
2018-09-24T07:58:00.205Z,1024.22
2018-09-24T07:59:53.517Z,1024.27
2018-09-24T08:00:53.526Z,1024.28
2018-09-24T08:02:46.792Z,1024.33
2018-09-24T08:03:46.734Z,1024.36
2018-09-24T08:05:40.036Z,1024.36
2018-09-24T08:06:40.000Z,1024.36
2018-09-24T08:08:33.567Z,1024.42
2018-09-24T08:09:33.517Z,1024.42
2018-09-24T08:11:26.853Z,1024.49
2018-09-24T08:12:26.776Z,1024.54
2018-09-24T08:14:20.112Z,1024.58
2018-09-24T08:15:20.042Z,1024.57
2018-09-24T08:17:13.372Z,1024.57
2018-09-24T08:18:13.389Z,1024.55
2018-09-24T08:20:08.718Z,1024.57
2018-09-24T08:21:08.618Z,1024.52
2018-09-24T08:23:02.912Z,1024.59
2018-09-24T08:24:02.946Z,1024.57
2018-09-24T08:25:55.743Z,1024.63
2018-09-24T08:26:55.667Z,1024.60
2018-09-24T08:28:49.644Z,1024.63
2018-09-24T08:29:48.969Z,1024.61
2018-09-24T08:31:43.292Z,1024.72
2018-09-24T08:32:43.219Z,1024.70
2018-09-24T08:34:36.556Z,1024.73
2018-09-24T08:35:36.549Z,1024.74
2018-09-24T08:37:30.987Z,1024.75
2018-09-24T08:38:30.847Z,1024.75
2018-09-24T08:40:24.831Z,1024.82
2018-09-24T08:41:25.323Z,1024.80
2018-09-24T08:43:18.064Z,1024.84
2018-09-24T08:44:18.024Z,1024.80
2018-09-24T08:46:12.345Z,1024.81
2018-09-24T08:47:12.289Z,1024.77
2018-09-24T08:49:05.699Z,1024.73
2018-09-24T08:50:05.573Z,1024.74
2018-09-24T08:51:58.434Z,1024.76
2018-09-24T08:52:58.377Z,1024.73
2018-09-24T08:54:52.803Z,1024.74
2018-09-24T08:55:52.630Z,1024.79
2018-09-24T08:57:49.095Z,1024.80
2018-09-24T08:58:48.985Z,1024.80
2018-09-24T09:00:42.322Z,1024.84
2018-09-24T09:01:42.248Z,1024.89
2018-09-24T09:03:36.799Z,1024.88
2018-09-24T09:04:36.742Z,1024.87
2018-09-24T09:06:31.143Z,1024.95
2018-09-24T09:07:30.264Z,1024.96
2018-09-24T09:09:23.695Z,1024.93
2018-09-24T09:10:23.649Z,1024.98
2018-09-24T09:12:18.932Z,1025.04
2018-09-24T09:13:18.888Z,1025.00
2018-09-24T09:15:14.284Z,1025.06
2018-09-24T09:16:14.280Z,1025.07
2018-09-24T09:18:09.597Z,1025.05
2018-09-24T09:19:09.543Z,1025.04
2018-09-24T09:21:04.918Z,1025.05
2018-09-24T09:22:04.884Z,1025.08
2018-09-24T09:24:00.239Z,1025.09
2018-09-24T09:24:59.119Z,1025.06
2018-09-24T09:26:53.693Z,1025.10
2018-09-24T09:27:54.500Z,1025.06
2018-09-24T09:29:47.904Z,1025.02
2018-09-24T09:30:47.953Z,1025.01
2018-09-24T09:32:41.190Z,1025.08
2018-09-24T09:33:41.170Z,1025.06
2018-09-24T09:35:34.580Z,1025.18
2018-09-24T09:36:34.475Z,1025.18
2018-09-24T09:38:28.900Z,1025.17
2018-09-24T09:39:28.811Z,1025.15
2018-09-24T09:41:23.196Z,1025.16
2018-09-24T09:42:23.134Z,1025.11
2018-09-24T09:44:18.457Z,1025.11
2018-09-24T09:45:18.382Z,1025.06
2018-09-24T09:47:11.750Z,1025.17
2018-09-24T09:48:11.655Z,1025.25
2018-09-24T09:50:05.297Z,1025.29
2018-09-24T09:51:05.241Z,1025.32
2018-09-24T09:52:59.602Z,1025.34
2018-09-24T09:53:59.500Z,1025.43
2018-09-24T09:55:53.852Z,1025.50
2018-09-24T09:56:53.830Z,1025.46
2018-09-24T09:58:47.141Z,1025.56
2018-09-24T09:59:47.200Z,1025.60
2018-09-24T10:01:41.522Z,1025.75
2018-09-24T10:02:41.463Z,1025.97
2018-09-24T10:04:35.844Z,1025.92
2018-09-24T10:05:35.735Z,1025.64
2018-09-24T10:07:29.651Z,1025.94
2018-09-24T10:08:29.059Z,1026.01
2018-09-24T10:10:22.656Z,1025.97
2018-09-24T10:11:22.581Z,1025.94
2018-09-24T10:13:17.921Z,1025.98
2018-09-24T10:14:17.867Z,1026.00
2018-09-24T10:16:13.060Z,1026.01
2018-09-24T10:17:13.028Z,1026.03
2018-09-24T10:19:06.387Z,1025.92
2018-09-24T10:20:06.355Z,1025.91
2018-09-24T10:22:01.238Z,1025.92
2018-09-24T10:22:59.639Z,1025.99
2018-09-24T10:24:53.445Z,1026.03
2018-09-24T10:25:53.405Z,1025.96
2018-09-24T10:27:46.803Z,1025.98
2018-09-24T10:28:46.703Z,1026.01
2018-09-24T10:30:41.117Z,1026.07
2018-09-24T10:31:41.032Z,1026.05
2018-09-24T10:33:35.432Z,1026.07
2018-09-24T10:34:35.334Z,1026.07
2018-09-24T10:36:29.778Z,1026.09
2018-09-24T10:37:29.689Z,1026.08
2018-09-24T10:39:24.067Z,1026.09
2018-09-24T10:40:24.138Z,1025.86
2018-09-24T10:42:20.477Z,1026.10
2018-09-24T10:43:20.363Z,1025.40
2018-09-24T10:45:15.828Z,1026.00
2018-09-24T10:46:15.798Z,1025.94
2018-09-24T10:48:09.279Z,1026.00
2018-09-24T10:49:09.230Z,1026.03
2018-09-24T10:51:03.664Z,1025.97
2018-09-24T10:52:03.578Z,1026.02
2018-09-24T10:53:56.443Z,1026.10
2018-09-24T10:54:56.389Z,1026.10
2018-09-24T10:56:51.792Z,1025.90
2018-09-24T10:57:51.758Z,1025.99
2018-09-24T10:59:46.098Z,1026.02
2018-09-24T11:00:46.036Z,1026.14
2018-09-24T11:02:40.478Z,1026.08
2018-09-24T11:03:40.340Z,1025.48
2018-09-24T11:05:33.703Z,1026.04
2018-09-24T11:06:33.633Z,1025.99
2018-09-24T11:08:26.974Z,1026.03
2018-09-24T11:09:27.006Z,1025.98
2018-09-24T11:11:20.248Z,1025.96
2018-09-24T11:12:20.221Z,1025.89
2018-09-24T11:14:13.573Z,1025.48
2018-09-24T11:15:13.543Z,1025.42
2018-09-24T11:17:08.070Z,1026.01
2018-09-24T11:18:07.888Z,1025.86
2018-09-24T11:20:02.170Z,1025.88
2018-09-24T11:21:02.143Z,1025.88
2018-09-24T11:22:54.999Z,1025.89
2018-09-24T11:23:54.937Z,1025.40
2018-09-24T11:25:49.309Z,1025.40
2018-09-24T11:26:49.300Z,1025.45
2018-09-24T11:28:43.589Z,1025.71
2018-09-24T11:29:43.616Z,1025.64
2018-09-24T11:31:36.889Z,1025.78
2018-09-24T11:32:36.862Z,1025.81
2018-09-24T11:34:30.259Z,1025.86
2018-09-24T11:35:30.174Z,1025.89
2018-09-24T11:37:24.055Z,1025.31
2018-09-24T11:38:24.045Z,1025.78
2018-09-24T11:40:17.359Z,1025.91
2018-09-24T11:41:17.333Z,1025.91
2018-09-24T11:43:11.625Z,1025.35
2018-09-24T11:44:11.618Z,1025.41
2018-09-24T11:46:04.928Z,1025.39
2018-09-24T11:47:04.984Z,1025.40
2018-09-24T11:48:58.225Z,1025.48
2018-09-24T11:49:58.179Z,1025.39
2018-09-24T11:51:51.051Z,1025.52
2018-09-24T11:52:51.002Z,1025.58
2018-09-24T11:54:44.329Z,1025.50
2018-09-24T11:55:44.325Z,1025.49
2018-09-24T11:57:37.779Z,1025.64
2018-09-24T11:58:37.634Z,1025.70
2018-09-24T12:00:31.994Z,1025.78
2018-09-24T12:01:31.966Z,1025.80
2018-09-24T12:03:25.255Z,1025.81
2018-09-24T12:04:25.237Z,1025.79
2018-09-24T12:06:18.581Z,1025.77
2018-09-24T12:07:18.501Z,1025.78
2018-09-24T12:09:11.840Z,1025.76
2018-09-24T12:10:11.830Z,1025.74
2018-09-24T12:12:05.097Z,1025.72
2018-09-24T12:13:05.054Z,1025.68
2018-09-24T12:14:58.360Z,1025.65
2018-09-24T12:15:58.362Z,1025.58
2018-09-24T12:17:51.630Z,1025.58
2018-09-24T12:18:51.610Z,1025.57
2018-09-24T12:20:44.933Z,1025.58
2018-09-24T12:21:44.867Z,1025.64
2018-09-24T12:23:38.203Z,1025.60
2018-09-24T12:24:38.142Z,1025.61
2018-09-24T12:26:31.504Z,1025.63
2018-09-24T12:27:31.425Z,1025.63
2018-09-24T12:29:24.830Z,1025.67
2018-09-24T12:30:24.752Z,1025.65
2018-09-24T12:32:18.003Z,1025.61
2018-09-24T12:33:18.017Z,1025.64
2018-09-24T12:35:11.298Z,1025.65
2018-09-24T12:36:11.245Z,1025.63
2018-09-24T12:38:05.537Z,1025.65
2018-09-24T12:39:05.512Z,1025.59
2018-09-24T12:41:00.873Z,1025.57
2018-09-24T12:42:00.863Z,1025.56
2018-09-24T12:43:54.153Z,1025.57
2018-09-24T12:44:54.084Z,1025.56
2018-09-24T12:46:47.408Z,1025.58
2018-09-24T12:47:47.350Z,1025.57
2018-09-24T12:49:40.717Z,1025.58
2018-09-24T12:50:40.659Z,1025.59
2018-09-24T12:52:34.024Z,1025.58
2018-09-24T12:53:33.971Z,1025.49
2018-09-24T12:55:27.234Z,1025.50
2018-09-24T12:56:27.187Z,1025.50
2018-09-24T12:58:21.579Z,1025.50
2018-09-24T12:59:21.487Z,1025.43
2018-09-24T13:01:14.813Z,1025.44
2018-09-24T13:02:14.768Z,1025.48
2018-09-24T13:04:08.057Z,1025.47
2018-09-24T13:05:07.875Z,1025.41
2018-09-24T13:07:01.119Z,1025.38
2018-09-24T13:08:01.059Z,1025.43
2018-09-24T13:09:54.465Z,1025.34
2018-09-24T13:10:54.443Z,1025.34
2018-09-24T13:12:47.738Z,1025.34
2018-09-24T13:13:47.725Z,1025.34
2018-09-24T13:15:42.024Z,1025.32
2018-09-24T13:16:42.034Z,1025.36
2018-09-24T13:18:36.362Z,1025.34
2018-09-24T13:19:36.320Z,1025.32
2018-09-24T13:21:29.165Z,1025.32
2018-09-24T13:22:29.074Z,1025.38
2018-09-24T13:24:22.368Z,1025.33
2018-09-24T13:25:22.334Z,1025.37
2018-09-24T13:27:17.755Z,1025.40
2018-09-24T13:28:17.709Z,1025.43
2018-09-24T13:30:12.114Z,1025.47
2018-09-24T13:31:11.976Z,1025.47
2018-09-24T13:33:05.355Z,1025.43
2018-09-24T13:34:05.289Z,1025.47
2018-09-24T13:35:58.558Z,1025.38
2018-09-24T13:36:58.530Z,1025.39
2018-09-24T13:38:53.850Z,1025.40
2018-09-24T13:39:53.827Z,1025.48
2018-09-24T13:41:48.279Z,1025.47
2018-09-24T13:42:48.160Z,1025.47
2018-09-24T13:44:41.521Z,1025.53
2018-09-24T13:45:41.444Z,1025.57
2018-09-24T13:47:36.798Z,1025.61
2018-09-24T13:48:36.716Z,1025.56
2018-09-24T13:50:30.379Z,1025.55
2018-09-24T13:51:30.216Z,1025.57
2018-09-24T13:53:23.300Z,1025.62
2018-09-24T13:54:23.231Z,1025.55
2018-09-24T13:56:16.600Z,1025.56
2018-09-24T13:57:16.537Z,1025.54
2018-09-24T13:59:11.134Z,1025.46
2018-09-24T14:00:11.196Z,1025.50
2018-09-24T14:02:05.463Z,1025.52
2018-09-24T14:03:05.356Z,1025.52
2018-09-24T14:04:59.264Z,1025.53
2018-09-24T14:05:58.678Z,1025.56
2018-09-24T14:07:52.013Z,1025.52
2018-09-24T14:08:51.941Z,1025.55
2018-09-24T14:10:45.247Z,1025.56
2018-09-24T14:11:45.232Z,1025.53
2018-09-24T14:13:40.557Z,1025.52
2018-09-24T14:14:40.498Z,1025.54
2018-09-24T14:16:35.870Z,1025.55
2018-09-24T14:17:35.767Z,1025.58
2018-09-24T14:19:29.102Z,1025.55
2018-09-24T14:20:29.066Z,1025.51
2018-09-24T14:22:22.471Z,1025.53
2018-09-24T14:23:22.354Z,1025.53
2018-09-24T14:25:15.760Z,1025.55
2018-09-24T14:26:15.748Z,1025.55
2018-09-24T14:28:08.520Z,1025.56
2018-09-24T14:29:08.453Z,1025.58
2018-09-24T14:31:01.758Z,1025.54
2018-09-24T14:32:01.727Z,1025.55
2018-09-24T14:33:55.084Z,1025.53
2018-09-24T14:34:55.013Z,1025.51
2018-09-24T14:36:48.321Z,1025.54
2018-09-24T14:37:48.271Z,1025.54
2018-09-24T14:39:42.627Z,1025.53
2018-09-24T14:40:42.543Z,1025.53
2018-09-24T14:42:35.877Z,1025.50
2018-09-24T14:43:35.875Z,1025.55
2018-09-24T14:45:30.046Z,1025.54
2018-09-24T14:46:29.992Z,1025.51
2018-09-24T14:48:23.947Z,1025.53
2018-09-24T14:49:23.779Z,1025.51
2018-09-24T14:51:18.197Z,1025.53
2018-09-24T14:52:18.056Z,1025.48
2018-09-24T14:54:13.962Z,1025.48
2018-09-24T14:55:13.382Z,1025.58
2018-09-24T14:57:07.868Z,1025.53
2018-09-24T14:58:07.813Z,1025.57
2018-09-24T15:00:02.177Z,1025.48
2018-09-24T15:01:02.249Z,1025.46
2018-09-24T15:02:55.408Z,1025.51
2018-09-24T15:03:55.368Z,1025.50
2018-09-24T15:05:49.858Z,1025.46
2018-09-24T15:06:49.650Z,1025.51
2018-09-24T15:08:42.991Z,1025.50
2018-09-24T15:09:42.924Z,1025.49
2018-09-24T15:11:36.259Z,1025.52
2018-09-24T15:12:36.242Z,1025.49
2018-09-24T15:14:29.533Z,1025.51
2018-09-24T15:15:29.512Z,1025.48
2018-09-24T15:17:22.916Z,1025.44
2018-09-24T15:18:22.760Z,1025.54
2018-09-24T15:20:17.109Z,1025.51
2018-09-24T15:21:17.099Z,1025.52
2018-09-24T15:23:11.395Z,1025.51
2018-09-24T15:24:11.331Z,1025.53
2018-09-24T15:26:04.661Z,1025.51
2018-09-24T15:27:04.608Z,1025.53
2018-09-24T15:28:57.978Z,1025.51
2018-09-24T15:29:57.879Z,1025.54
2018-09-24T15:31:52.206Z,1025.51
2018-09-24T15:32:52.159Z,1025.49
2018-09-24T15:34:45.484Z,1025.48
2018-09-24T15:35:45.445Z,1025.50
2018-09-24T15:37:38.810Z,1025.44
2018-09-24T15:38:38.730Z,1025.50
2018-09-24T15:40:32.039Z,1025.51
2018-09-24T15:41:32.026Z,1025.55
2018-09-24T15:43:25.331Z,1025.51
2018-09-24T15:44:25.269Z,1025.56
2018-09-24T15:46:18.606Z,1025.48
2018-09-24T15:47:18.530Z,1025.47
2018-09-24T15:49:11.849Z,1025.49
2018-09-24T15:50:11.870Z,1025.44
2018-09-24T15:52:05.150Z,1025.44
2018-09-24T15:53:05.085Z,1025.46
2018-09-24T15:54:59.416Z,1025.43
2018-09-24T15:55:59.374Z,1025.43
2018-09-24T15:57:52.212Z,1025.47
2018-09-24T15:58:52.191Z,1025.44
2018-09-24T16:00:45.476Z,1025.43
2018-09-24T16:01:45.452Z,1025.47
2018-09-24T16:03:38.792Z,1025.47
2018-09-24T16:04:38.720Z,1025.43
2018-09-24T16:06:32.067Z,1025.48
2018-09-24T16:07:31.986Z,1025.46
2018-09-24T16:09:24.812Z,1025.45
2018-09-24T16:10:24.772Z,1025.49
2018-09-24T16:12:18.112Z,1025.43
2018-09-24T16:13:18.036Z,1025.45
2018-09-24T16:15:11.335Z,1025.46
2018-09-24T16:16:11.304Z,1025.46
2018-09-24T16:18:04.662Z,1025.48
2018-09-24T16:19:04.608Z,1025.50
2018-09-24T16:20:57.901Z,1025.51
2018-09-24T16:21:57.882Z,1025.54
2018-09-24T16:23:51.191Z,1025.57
2018-09-24T16:24:51.137Z,1025.58
2018-09-24T16:26:44.464Z,1025.61
2018-09-24T16:27:44.426Z,1025.54
2018-09-24T16:29:37.728Z,1025.59
2018-09-24T16:30:37.687Z,1025.56
2018-09-24T16:32:31.098Z,1025.61
2018-09-24T16:33:30.956Z,1025.60
2018-09-24T16:35:25.271Z,1025.65
2018-09-24T16:36:25.242Z,1025.59
2018-09-24T16:38:18.543Z,1025.61
2018-09-24T16:39:18.493Z,1025.55
2018-09-24T16:41:11.801Z,1025.57
2018-09-24T16:42:11.761Z,1025.56
2018-09-24T16:44:05.084Z,1025.61
2018-09-24T16:45:05.027Z,1025.59
2018-09-24T16:46:58.417Z,1025.64
2018-09-24T16:47:58.358Z,1025.59
2018-09-24T16:49:51.728Z,1025.60
2018-09-24T16:50:51.638Z,1025.61
2018-09-24T16:52:44.522Z,1025.60
2018-09-24T16:53:44.419Z,1025.57
2018-09-24T16:55:37.768Z,1025.58
2018-09-24T16:56:37.703Z,1025.59
2018-09-24T16:58:31.011Z,1025.61
2018-09-24T16:59:30.958Z,1025.61
2018-09-24T17:01:24.290Z,1025.61
2018-09-24T17:02:24.246Z,1025.66
2018-09-24T17:04:17.568Z,1025.66
2018-09-24T17:05:17.523Z,1025.64
2018-09-24T17:07:10.826Z,1025.62
2018-09-24T17:08:10.793Z,1025.67
2018-09-24T17:10:04.124Z,1025.68
2018-09-24T17:11:04.074Z,1025.71
2018-09-24T17:12:57.497Z,1025.71
2018-09-24T17:13:57.348Z,1025.71
2018-09-24T17:15:50.658Z,1025.74
2018-09-24T17:16:50.618Z,1025.72
2018-09-24T17:18:43.948Z,1025.72
2018-09-24T17:19:43.888Z,1025.73
2018-09-24T17:21:37.355Z,1025.70
2018-09-24T17:22:37.235Z,1025.70
2018-09-24T17:24:30.574Z,1025.73
2018-09-24T17:25:30.483Z,1025.73
2018-09-24T17:27:23.829Z,1025.76
2018-09-24T17:28:23.790Z,1025.78
2018-09-24T17:30:19.106Z,1025.74